createdAt,value
2023-05-07T00:00:05.888Z,57.11
2023-05-07T00:04:22.774Z,56.93
2023-05-07T00:08:32.311Z,57.06
2023-05-07T00:12:42.011Z,56.86
2023-05-07T00:16:41.326Z,56.91
2023-05-07T00:20:50.921Z,56.90
2023-05-07T00:24:53.464Z,56.63
2023-05-07T00:29:03.230Z,56.68
2023-05-07T00:33:12.681Z,56.58
2023-05-07T00:37:12.656Z,56.44
2023-05-07T00:41:09.871Z,56.21
2023-05-07T00:45:19.280Z,56.38
2023-05-07T00:49:28.849Z,56.33
2023-05-07T00:53:38.394Z,56.13
2023-05-07T00:57:20.704Z,56.05
2023-05-07T01:01:30.498Z,56.12
2023-05-07T01:05:22.916Z,56.00
2023-05-07T01:09:32.885Z,56.01
2023-05-07T01:13:35.075Z,56.12
2023-05-07T01:17:43.892Z,55.91
2023-05-07T01:22:02.884Z,55.88
2023-05-07T01:26:11.889Z,56.02
2023-05-07T01:30:21.352Z,55.77
2023-05-07T01:34:30.758Z,56.00
2023-05-07T01:38:40.353Z,55.86
2023-05-07T01:42:49.926Z,55.79
2023-05-07T01:46:59.438Z,55.52
2023-05-07T01:51:09.331Z,55.64
2023-05-07T01:55:04.613Z,55.73
2023-05-07T01:59:14.050Z,55.80
2023-05-07T02:19:49.852Z,55.63
2023-05-07T02:23:59.411Z,55.56
2023-05-07T02:28:00.635Z,55.47
2023-05-07T02:32:10.335Z,55.64
2023-05-07T02:36:19.769Z,55.50
2023-05-07T02:40:34.779Z,55.53
2023-05-07T02:44:44.292Z,55.72
2023-05-07T02:48:46.115Z,55.73
2023-05-07T02:52:48.454Z,55.75
2023-05-07T02:56:29.151Z,55.65
2023-05-07T03:00:37.642Z,55.67
2023-05-07T03:04:53.331Z,55.65
2023-05-07T03:09:01.505Z,55.66
2023-05-07T03:13:11.060Z,55.79
2023-05-07T03:17:09.902Z,55.93
2023-05-07T03:21:18.032Z,55.91
2023-05-07T03:25:27.539Z,56.01
2023-05-07T03:29:36.978Z,56.22
2023-05-07T03:33:40.867Z,56.19
2023-05-07T03:37:30.140Z,56.22
2023-05-07T03:41:32.165Z,56.28
2023-05-07T03:45:34.397Z,56.32
2023-05-07T03:49:40.200Z,56.21
2023-05-07T03:53:49.631Z,56.45
2023-05-07T03:57:59.100Z,56.49
2023-05-07T04:02:08.684Z,56.50
2023-05-07T04:05:58.194Z,56.61
2023-05-07T04:10:08.044Z,56.49
2023-05-07T04:14:17.783Z,56.71
2023-05-07T04:18:27.182Z,56.92
2023-05-07T04:22:37.904Z,56.99
2023-05-07T04:26:40.692Z,57.03
2023-05-07T04:30:32.928Z,57.05
2023-05-07T04:34:42.380Z,56.97
2023-05-07T04:38:51.816Z,56.99
2023-05-07T04:43:01.671Z,56.92
2023-05-07T04:46:54.177Z,57.07
2023-05-07T04:51:03.814Z,57.12
2023-05-07T04:55:13.412Z,57.10
2023-05-07T04:59:15.764Z,56.93
2023-05-07T05:03:25.362Z,57.00
2023-05-07T05:07:25.063Z,57.05
2023-05-07T05:11:34.498Z,56.85
2023-05-07T05:15:44.129Z,56.77
2023-05-07T05:19:53.713Z,56.55
2023-05-07T05:24:03.230Z,56.46
2023-05-07T05:28:12.757Z,56.31
2023-05-07T05:32:22.472Z,56.28
2023-05-07T05:36:32.146Z,56.36
2023-05-07T05:40:41.604Z,56.25
2023-05-07T05:44:30.862Z,56.28
2023-05-07T05:48:38.873Z,56.22
2023-05-07T05:52:48.350Z,56.23
2023-05-07T05:56:54.280Z,56.22
2023-05-07T06:00:53.835Z,56.27
2023-05-07T06:05:03.611Z,56.23
2023-05-07T06:08:57.053Z,56.14
2023-05-07T06:13:06.720Z,56.15
2023-05-07T06:17:16.308Z,56.06
2023-05-07T06:21:18.224Z,56.15
2023-05-07T06:25:27.667Z,56.15
2023-05-07T06:29:37.129Z,56.13
2023-05-07T06:33:46.608Z,56.03
2023-05-07T06:37:51.293Z,56.02
2023-05-07T06:41:40.612Z,56.06
2023-05-07T06:45:42.245Z,55.94
2023-05-07T06:49:51.639Z,55.95
2023-05-07T06:53:59.217Z,55.98
2023-05-07T06:58:01.836Z,55.84
2023-05-07T07:02:11.366Z,55.68
2023-05-07T07:06:12.946Z,55.68
2023-05-07T07:10:21.228Z,55.60
2023-05-07T07:14:00.859Z,55.63
2023-05-07T07:17:39.498Z,55.59
2023-05-07T07:21:20.852Z,55.68
2023-05-07T07:25:17.269Z,55.66
2023-05-07T07:29:06.503Z,55.46
2023-05-07T07:33:16.196Z,55.60
2023-05-07T07:41:55.100Z,55.57
2023-05-07T07:45:54.535Z,55.59
2023-05-07T07:49:12.624Z,55.35
2023-05-07T07:53:22.409Z,55.33
2023-05-07T07:57:31.862Z,55.21
2023-05-07T08:01:42.441Z,55.31
2023-05-07T08:05:45.825Z,55.19
2023-05-07T08:09:55.362Z,55.08
2023-05-07T08:14:05.151Z,55.06
2023-05-07T08:18:15.017Z,55.06
2023-05-07T08:22:24.280Z,55.03
2023-05-07T08:26:34.100Z,54.97
2023-05-07T08:30:43.677Z,54.88
2023-05-07T08:34:45.884Z,54.84
2023-05-07T08:38:50.509Z,54.72
2023-05-07T08:42:53.379Z,54.58
2023-05-07T08:47:02.339Z,54.58
2023-05-07T08:51:12.278Z,54.52
2023-05-07T08:55:22.105Z,54.40
2023-05-07T08:59:11.956Z,54.35
2023-05-07T09:03:21.421Z,54.18
2023-05-07T09:07:24.306Z,54.30
2023-05-07T09:11:25.262Z,54.20
2023-05-07T09:15:34.706Z,54.32
2023-05-07T09:19:44.184Z,54.38
2023-05-07T09:23:53.726Z,54.41
2023-05-07T09:28:01.969Z,54.37
2023-05-07T09:32:11.566Z,54.35
2023-05-07T09:36:10.063Z,54.32
2023-05-07T09:40:25.636Z,54.33
2023-05-07T09:44:35.193Z,54.28
2023-05-07T09:48:44.951Z,54.08
2023-05-07T09:52:47.747Z,53.67
2023-05-07T09:56:47.155Z,53.35
2023-05-07T10:00:56.908Z,53.06
2023-05-07T10:05:06.099Z,52.63
2023-05-07T10:09:15.508Z,52.59
2023-05-07T10:13:11.220Z,52.24
2023-05-07T10:17:20.864Z,52.04
2023-05-07T10:21:30.693Z,51.87
2023-05-07T10:25:18.917Z,51.73
2023-05-07T10:29:03.927Z,51.67
2023-05-07T10:33:05.208Z,51.66
2023-05-07T10:36:25.421Z,51.85
2023-05-07T10:40:23.433Z,51.87
2023-05-07T10:44:45.132Z,51.77
2023-05-07T10:48:30.124Z,51.72
2023-05-07T10:52:55.372Z,51.30
2023-05-07T10:57:21.471Z,51.27
2023-05-07T11:01:21.526Z,51.45
2023-05-07T11:05:29.770Z,51.39
2023-05-07T11:09:34.382Z,51.50
2023-05-07T11:13:10.609Z,51.65
2023-05-07T11:17:09.184Z,51.77
2023-05-07T11:21:30.680Z,51.96
2023-05-07T11:25:22.848Z,51.93
2023-05-07T11:29:32.444Z,51.88
2023-05-07T11:33:37.971Z,51.86
2023-05-07T11:37:15.945Z,51.81
2023-05-07T11:41:11.437Z,51.77
2023-05-07T11:45:18.058Z,51.71
2023-05-07T11:55:01.216Z,51.59
2023-05-07T11:58:33.472Z,51.53
2023-05-07T12:02:32.119Z,51.63
2023-05-07T12:06:06.511Z,51.76
2023-05-07T12:10:04.560Z,51.58
2023-05-07T12:13:48.549Z,51.67
2023-05-07T12:17:47.791Z,51.41
2023-05-07T12:21:50.337Z,51.32
2023-05-07T12:25:47.865Z,51.20
2023-05-07T12:29:48.814Z,51.31
2023-05-07T12:33:58.413Z,51.35
2023-05-07T12:37:44.195Z,51.33
2023-05-07T12:41:52.408Z,50.93
2023-05-07T12:46:02.368Z,51.03
2023-05-07T12:50:12.115Z,50.89
2023-05-07T12:54:14.556Z,50.90
2023-05-07T12:57:43.301Z,50.80
2023-05-07T13:01:51.878Z,50.79
2023-05-07T13:05:20.917Z,50.71
2023-05-07T13:09:16.081Z,50.63
2023-05-07T13:13:25.653Z,50.34
2023-05-07T13:17:35.663Z,49.98
2023-05-07T13:21:34.036Z,49.76
2023-05-07T13:25:37.185Z,49.75
2023-05-07T13:29:31.238Z,49.65
2023-05-07T13:33:30.938Z,49.63
2023-05-07T13:37:23.177Z,49.69
2023-05-07T13:41:08.516Z,49.47
2023-05-07T13:45:10.887Z,49.05
2023-05-07T13:49:03.616Z,48.96
2023-05-07T13:52:40.421Z,48.70
2023-05-07T13:56:50.096Z,48.22
2023-05-07T14:00:53.590Z,48.02
2023-05-07T14:03:55.794Z,47.65
2023-05-07T14:07:16.095Z,47.38
2023-05-07T14:10:54.194Z,47.23
2023-05-07T14:14:05.668Z,46.99
2023-05-07T14:18:00.725Z,46.64
2023-05-07T14:21:36.566Z,46.50
2023-05-07T14:24:41.248Z,46.48
2023-05-07T14:28:41.076Z,46.19
2023-05-07T14:32:43.693Z,45.86
2023-05-07T14:36:38.968Z,45.50
2023-05-07T14:40:48.729Z,45.33
2023-05-07T14:44:58.217Z,45.24
2023-05-07T14:59:27.076Z,44.15
2023-05-07T15:03:16.920Z,43.32
2023-05-07T15:07:08.851Z,43.01
2023-05-07T15:10:43.807Z,42.63
2023-05-07T15:14:51.918Z,42.18
2023-05-07T15:18:55.674Z,42.37
2023-05-07T15:22:05.113Z,42.08
2023-05-07T15:26:14.649Z,41.71
2023-05-07T15:30:53.992Z,41.92
2023-05-07T15:34:53.950Z,41.80
2023-05-07T15:37:56.060Z,41.74
2023-05-07T15:41:27.748Z,41.69
2023-05-07T15:45:27.186Z,41.54
2023-05-07T15:48:55.444Z,41.46
2023-05-07T15:52:54.424Z,41.47
2023-05-07T15:56:53.123Z,41.44
2023-05-07T16:00:48.262Z,40.80
2023-05-07T16:04:33.018Z,40.51
2023-05-07T16:08:42.489Z,40.48
2023-05-07T16:12:52.447Z,40.31
2023-05-07T16:16:50.329Z,40.35
2023-05-07T16:20:23.264Z,39.95
2023-05-07T16:23:27.826Z,40.19
2023-05-07T16:27:22.836Z,39.85
2023-05-07T16:31:11.988Z,39.80
2023-05-07T16:34:32.481Z,39.62
2023-05-07T16:38:11.731Z,39.43
2023-05-07T16:42:08.590Z,38.94
2023-05-07T16:45:59.864Z,39.04
2023-05-07T16:50:00.281Z,39.07
2023-05-07T16:54:09.754Z,38.74
2023-05-07T16:57:54.671Z,39.10
2023-05-07T17:01:57.093Z,39.26
2023-05-07T17:06:09.667Z,39.16
2023-05-07T17:10:17.443Z,38.83
2023-05-07T17:14:27.012Z,38.91
2023-05-07T17:18:26.363Z,38.72
2023-05-07T17:22:13.078Z,38.55
2023-05-07T17:26:22.498Z,38.77
2023-05-07T17:30:32.016Z,38.77
2023-05-07T17:34:21.577Z,38.69
2023-05-07T17:38:31.400Z,38.69
2023-05-07T17:42:39.933Z,38.54
2023-05-07T17:46:40.426Z,38.51
2023-05-07T17:50:49.983Z,38.55
2023-05-07T17:54:38.187Z,38.55
2023-05-07T17:58:49.007Z,38.57
2023-05-07T18:03:07.398Z,38.49
2023-05-07T18:07:07.581Z,38.37
2023-05-07T18:11:09.640Z,38.37
2023-05-07T18:14:31.351Z,38.44
2023-05-07T18:17:38.279Z,38.70
2023-05-07T18:21:30.423Z,38.87
2023-05-07T18:25:40.097Z,38.89
2023-05-07T18:29:49.626Z,39.04
2023-05-07T18:33:47.991Z,39.32
2023-05-07T18:37:48.347Z,39.35
2023-05-07T18:42:03.927Z,39.60
2023-05-07T18:46:06.324Z,39.76
2023-05-07T18:50:00.414Z,40.02
2023-05-07T18:53:53.151Z,40.23
2023-05-07T18:57:58.534Z,40.47
2023-05-07T19:02:08.042Z,40.72
2023-05-07T19:05:44.487Z,40.88
2023-05-07T19:09:25.775Z,41.07
2023-05-07T19:13:36.047Z,41.33
2023-05-07T19:17:13.394Z,41.54
2023-05-07T19:21:15.785Z,41.66
2023-05-07T19:24:59.018Z,41.84
2023-05-07T19:28:30.729Z,42.02
2023-05-07T19:32:40.483Z,42.23
2023-05-07T19:36:50.382Z,42.35
2023-05-07T19:40:14.732Z,42.47
2023-05-07T19:43:39.554Z,42.79
2023-05-07T19:47:36.192Z,42.89
2023-05-07T19:51:38.871Z,43.01
2023-05-07T19:55:31.701Z,43.27
2023-05-07T19:59:40.225Z,43.43
2023-05-07T20:03:49.864Z,43.49
2023-05-07T20:07:59.955Z,43.75
2023-05-07T20:12:09.444Z,43.94
2023-05-07T20:16:20.548Z,44.11
2023-05-07T20:20:30.848Z,44.33
2023-05-07T20:24:32.256Z,44.48
2023-05-07T20:28:01.282Z,44.47
2023-05-07T20:31:53.561Z,44.75
2023-05-07T20:36:01.826Z,44.92
2023-05-07T20:40:00.205Z,45.14
2023-05-07T20:44:09.822Z,45.17
2023-05-07T20:48:12.119Z,45.32
2023-05-07T20:51:50.269Z,45.55
2023-05-07T20:55:45.066Z,45.65
2023-05-07T20:59:53.738Z,45.79
2023-05-07T21:04:03.248Z,45.96
2023-05-07T21:08:12.923Z,46.02
2023-05-07T21:12:08.059Z,46.28
2023-05-07T21:16:10.852Z,46.36
2023-05-07T21:20:13.733Z,46.47
2023-05-07T21:24:23.827Z,46.50
2023-05-07T21:28:33.341Z,46.75
2023-05-07T21:32:41.614Z,46.63
2023-05-07T21:36:50.994Z,46.83
2023-05-07T21:41:00.646Z,46.87
2023-05-07T21:45:09.373Z,46.86
2023-05-07T21:49:19.113Z,47.03
2023-05-07T21:53:28.785Z,47.01
2023-05-07T21:57:21.750Z,47.10
2023-05-07T22:01:31.408Z,47.12
2023-05-07T22:05:41.017Z,47.24
2023-05-07T22:09:50.710Z,47.38
2023-05-07T22:13:48.944Z,47.43
2023-05-07T22:17:58.428Z,47.53
2023-05-07T22:22:07.812Z,47.72
2023-05-07T22:26:02.846Z,47.78
2023-05-07T22:29:47.015Z,47.95
2023-05-07T22:33:56.524Z,47.97
2023-05-07T22:38:05.742Z,48.01
2023-05-07T22:42:15.286Z,48.24
2023-05-07T22:46:25.142Z,48.29
2023-05-07T22:50:37.609Z,48.49
2023-05-07T22:54:47.163Z,48.63
2023-05-07T22:58:56.584Z,48.73
2023-05-07T23:02:59.182Z,48.73
2023-05-07T23:07:08.795Z,48.87
2023-05-07T23:11:18.342Z,48.90
2023-05-07T23:15:10.890Z,49.03
2023-05-07T23:19:19.205Z,49.32
2023-05-07T23:23:21.825Z,49.37
2023-05-07T23:34:58.397Z,49.57
2023-05-07T23:39:07.893Z,49.84
2023-05-07T23:43:16.596Z,49.68
2023-05-07T23:47:19.823Z,49.98
2023-05-07T23:51:29.577Z,50.12
2023-05-07T23:55:40.859Z,50.21
2023-05-07T23:59:43.015Z,50.39
